Time;durP1;ratioP1;P1;durP2;ratioP2;P2;SDS_P1;SDS_P2;PMS_P1;PMS_P2;Temp;Humidity;BMP_temperature;BMP_pressure;BME280_temperature;BME280_humidity;BME280_pressure;Samples;Min_cycle;Max_cycle;Signal;HPM_P1;HPM_P2
2023/05/20 00:00:02;;;;;;;1999.90;999.90;;;;;;;22.48;36.37;102600.91;5048809;28;20029;-68
2023/05/20 00:02:28;;;;;;;1999.90;999.90;;;;;;;21.42;38.37;102604.00;5048580;28;20408;-68
2023/05/20 00:04:53;;;;;;;1999.90;999.90;;;;;;;21.32;38.77;102609.63;5048300;28;20032;-67
2023/05/20 00:07:19;;;;;;;1999.90;999.90;;;;;;;22.63;36.29;102607.53;5048605;28;20078;-67
2023/05/20 00:09:44;;;;;;;1999.90;999.90;;;;;;;21.90;37.47;102614.22;5049644;28;20033;-67
2023/05/20 00:12:10;;;;;;;1999.90;999.90;;;;;;;21.94;37.50;102607.00;5048083;28;20025;-67
2023/05/20 00:14:35;;;;;;;1999.90;999.90;;;;;;;21.43;37.98;102606.66;5048839;28;20569;-67
2023/05/20 00:17:01;;;;;;;1999.90;999.90;;;;;;;21.09;38.04;102607.56;5048262;28;20551;-67
2023/05/20 00:19:26;;;;;;;1999.90;999.90;;;;;;;21.57;38.12;102614.28;5047816;28;20034;-67
2023/05/20 00:21:51;;;;;;;1999.90;999.90;;;;;;;21.73;38.04;102606.72;5048377;28;20518;-67
2023/05/20 00:24:17;;;;;;;1999.90;999.90;;;;;;;22.13;36.88;102602.88;5047285;28;20032;-67
2023/05/20 00:26:42;;;;;;;1999.90;999.90;;;;;;;21.77;37.66;102607.50;5048687;28;20049;-67
2023/05/20 00:29:07;;;;;;;1999.90;999.90;;;;;;;21.66;38.06;102608.69;5048175;28;20024;-66
2023/05/20 00:31:33;;;;;;;1999.90;999.90;;;;;;;22.20;37.07;102603.53;5047520;28;20169;-66
2023/05/20 00:33:58;;;;;;;1999.90;999.90;;;;;;;20.72;39.53;102603.19;5048435;28;20130;-67
2023/05/20 00:36:24;;;;;;;1999.90;999.90;;;;;;;21.62;38.00;102599.03;5048197;28;20124;-67
2023/05/20 00:38:49;;;;;;;1999.90;999.90;;;;;;;21.85;37.37;102593.03;5047556;28;20481;-67
2023/05/20 00:41:15;;;;;;;1999.90;999.90;;;;;;;22.27;36.94;102599.78;5064393;28;20641;-67
2023/05/20 00:43:40;;;;;;;1999.90;999.90;;;;;;;21.24;38.56;102600.06;5048288;28;20033;-67
2023/05/20 00:46:06;;;;;;;1999.90;999.90;;;;;;;22.10;37.13;102596.78;5047310;28;20010;-67
2023/05/20 00:48:39;;;;;;;1999.90;999.90;;;;;;;21.94;37.58;102601.69;5048036;28;20374;-67
2023/05/20 00:51:06;;;;;;;1999.90;999.90;;;;;;;21.95;37.36;102598.09;5047815;28;20036;-67
2023/05/20 00:53:32;;;;;;;1999.90;999.90;;;;;;;20.88;39.46;102597.47;5047347;28;20031;-67
2023/05/20 00:55:58;;;;;;;1999.90;999.90;;;;;;;21.36;38.20;102591.75;5048039;28;20530;-67
2023/05/20 00:58:23;;;;;;;1999.90;999.90;;;;;;;21.22;38.88;102596.59;5049016;28;20052;-67
2023/05/20 01:00:49;;;;;;;1999.90;999.90;;;;;;;21.84;37.51;102582.44;5047122;28;20043;-67
2023/05/20 01:03:15;;;;;;;1999.90;999.90;;;;;;;21.11;38.90;102588.91;5047352;28;20028;-67
2023/05/20 01:05:40;;;;;;;1999.90;999.90;;;;;;;21.86;37.35;102584.16;5048118;28;20021;-67
2023/05/20 01:08:06;;;;;;;1999.90;999.90;;;;;;;21.33;38.61;102579.41;5046966;28;20086;-67
2023/05/20 01:10:34;;;;;;;1999.90;999.90;;;;;;;21.65;37.59;102576.78;5055596;28;20447;-67
2023/05/20 01:13:07;;;;;;;1999.90;999.90;;;;;;;19.95;40.58;102578.41;5071323;28;20392;-67
2023/05/20 01:15:33;;;;;;;1999.90;999.90;;;;;;;21.06;38.59;102581.06;5054648;28;20056;-67
2023/05/20 01:18:04;;;;;;;1999.90;999.90;;;;;;;21.30;38.64;102576.00;5054387;28;20481;-67
2023/05/20 01:20:31;;;;;;;1999.90;999.90;;;;;;;20.56;39.66;102580.53;5070565;28;20048;-67
2023/05/20 01:22:57;;;;;;;1999.90;999.90;;;;;;;21.23;37.68;102577.09;5054472;28;20070;-67
2023/05/20 01:25:26;;;;;;;1999.90;999.90;;;;;;;21.65;37.66;102567.03;5054012;28;20158;-67
2023/05/20 01:27:54;;;;;;;1999.90;999.90;;;;;;;20.28;39.66;102573.25;5070460;28;20070;-67
2023/05/20 01:30:20;;;;;;;1999.90;999.90;;;;;;;20.82;39.40;102562.19;5053848;28;20025;-67
2023/05/20 01:32:57;;;;;;;1999.90;999.90;;;;;;;20.87;39.02;102569.16;5055773;28;20107;-68
2023/05/20 01:35:23;;;;;;;1999.90;999.90;;;;;;;21.29;38.51;102560.94;5053004;28;20094;-67
2023/05/20 01:37:50;;;;;;;1999.90;999.90;;;;;;;20.94;39.13;102565.44;5054443;28;20021;-67
2023/05/20 01:40:17;;;;;;;1999.90;999.90;;;;;;;21.30;38.66;102557.38;5053986;28;20489;-67
2023/05/20 01:42:44;;;;;;;1999.90;999.90;;;;;;;21.12;38.84;102559.63;5053497;28;20040;-67
2023/05/20 01:45:10;;;;;;;1999.90;999.90;;;;;;;21.45;38.33;102556.94;5053871;28;20029;-67
2023/05/20 01:47:36;;;;;;;1999.90;999.90;;;;;;;21.78;37.73;102554.25;5054434;28;20120;-67
2023/05/20 01:50:02;;;;;;;1999.90;999.90;;;;;;;20.62;39.38;102557.34;5053423;28;20243;-67
2023/05/20 01:52:27;;;;;;;1999.90;999.90;;;;;;;22.27;36.93;102556.28;5055084;28;20071;-67
2023/05/20 01:54:52;;;;;;;1999.90;999.90;;;;;;;21.17;38.89;102547.09;5070950;28;20035;-67
2023/05/20 01:57:19;;;;;;;1999.90;999.90;;;;;;;21.34;38.97;102553.72;5052446;28;20128;-66
2023/05/20 01:59:45;;;;;;;1999.90;999.90;;;;;;;20.46;40.03;102554.19;5055811;28;20029;-67
2023/05/20 02:02:10;;;;;;;1999.90;999.90;;;;;;;21.43;39.00;102548.16;5053597;28;20029;-67
2023/05/20 02:04:36;;;;;;;1999.90;999.90;;;;;;;20.86;39.95;102556.81;5053911;28;20028;-67
2023/05/20 02:07:01;;;;;;;1999.90;999.90;;;;;;;20.75;39.73;102549.97;5054109;28;20115;-67
2023/05/20 02:09:27;;;;;;;1999.90;999.90;;;;;;;21.62;38.03;102547.63;5053013;28;20024;-67
2023/05/20 02:11:52;;;;;;;1999.90;999.90;;;;;;;21.01;39.25;102549.28;5055416;28;20524;-66
2023/05/20 02:14:18;;;;;;;1999.90;999.90;;;;;;;21.30;38.99;102546.75;5055211;28;20028;-66
2023/05/20 02:16:45;;;;;;;1999.90;999.90;;;;;;;21.61;38.22;102545.88;5055252;28;20493;-67
2023/05/20 02:19:11;;;;;;;1999.90;999.90;;;;;;;21.66;38.52;102550.13;5053851;28;20086;-67
2023/05/20 02:21:39;;;;;;;1999.90;999.90;;;;;;;21.02;39.69;102550.16;5050692;28;20496;-67
2023/05/20 02:24:05;;;;;;;1999.90;999.90;;;;;;;21.42;38.89;102557.03;5049446;28;20025;-67
2023/05/20 02:26:30;;;;;;;1999.90;999.90;;;;;;;21.63;38.24;102549.38;5067703;28;20109;-67
2023/05/20 02:28:56;;;;;;;1999.90;999.90;;;;;;;20.99;39.40;102553.78;5050876;28;20120;-67
2023/05/20 02:31:21;;;;;;;1999.90;999.90;;;;;;;21.63;38.76;102552.03;5050616;28;20043;-67
2023/05/20 02:33:47;;;;;;;1999.90;999.90;;;;;;;21.54;38.31;102549.63;5050834;28;20061;-67
2023/05/20 02:36:12;;;;;;;1999.90;999.90;;;;;;;21.38;38.77;102547.41;5050110;28;20040;-67
2023/05/20 02:38:38;;;;;;;1999.90;999.90;;;;;;;21.10;39.09;102545.53;5049776;28;20036;-67
2023/05/20 02:41:06;;;;;;;1999.90;999.90;;;;;;;20.81;39.74;102548.94;5067254;28;20389;-67
2023/05/20 02:43:32;;;;;;;1999.90;999.90;;;;;;;20.99;39.42;102536.94;5050726;28;20029;-66
2023/05/20 02:45:57;;;;;;;1999.90;999.90;;;;;;;20.30;41.48;102539.53;5049906;28;20020;-67
2023/05/20 02:48:23;;;;;;;1999.90;999.90;;;;;;;20.59;40.04;102546.78;5051367;28;20854;-66
2023/05/20 02:50:48;;;;;;;1999.90;999.90;;;;;;;20.27;40.66;102539.63;5050076;28;20032;-66
2023/05/20 02:53:14;;;;;;;1999.90;999.90;;;;;;;20.26;41.62;102538.72;5065760;28;20140;-66
2023/05/20 02:55:39;;;;;;;1999.90;999.90;;;;;;;20.77;40.08;102536.63;5050290;28;20036;-66
2023/05/20 02:58:05;;;;;;;1999.90;999.90;;;;;;;20.88;39.95;102533.69;5050895;28;20110;-66
2023/05/20 03:00:30;;;;;;;1999.90;999.90;;;;;;;21.09;39.52;102538.44;5050936;28;20028;-66
2023/05/20 03:02:57;;;;;;;1999.90;999.90;;;;;;;20.87;39.62;102539.94;5066631;28;20036;-66
2023/05/20 03:05:23;;;;;;;1999.90;999.90;;;;;;;19.89;42.05;102536.06;5049609;28;20021;-66
2023/05/20 03:07:48;;;;;;;1999.90;999.90;;;;;;;20.54;40.42;102534.53;5049525;28;20036;-66
2023/05/20 03:10:14;;;;;;;1999.90;999.90;;;;;;;20.38;40.81;102534.91;5066106;28;20071;-67
2023/05/20 03:12:40;;;;;;;1999.90;999.90;;;;;;;20.20;40.94;102541.56;5048862;28;20115;-66
2023/05/20 03:15:06;;;;;;;1999.90;999.90;;;;;;;21.10;39.63;102540.19;5049256;28;20025;-66
2023/05/20 03:17:31;;;;;;;1999.90;999.90;;;;;;;19.65;42.02;102543.63;5051314;28;20396;-67
2023/05/20 03:19:57;;;;;;;1999.90;999.90;;;;;;;19.92;42.11;102542.19;5049009;28;20032;-66
2023/05/20 03:22:23;;;;;;;1999.90;999.90;;;;;;;19.61;42.43;102542.81;5049346;28;20636;-66
2023/05/20 03:24:48;;;;;;;1999.90;999.90;;;;;;;20.37;40.88;102537.63;5049777;28;20032;-66
2023/05/20 03:27:14;;;;;;;1999.90;999.90;;;;;;;20.10;41.90;102546.19;5048288;28;20056;-66
2023/05/20 03:29:39;;;;;;;1999.90;999.90;;;;;;;20.06;41.49;102541.88;5049597;28;20115;-66
2023/05/20 03:32:05;;;;;;;1999.90;999.90;;;;;;;20.35;41.32;102540.31;5048977;28;20031;-67
2023/05/20 03:34:31;;;;;;;1999.90;999.90;;;;;;;19.61;42.72;102547.25;5048588;28;20025;-67
2023/05/20 03:36:56;;;;;;;1999.90;999.90;;;;;;;19.85;41.96;102543.22;5049538;28;20056;-67
2023/05/20 03:39:22;;;;;;;1999.90;999.90;;;;;;;20.46;40.98;102540.06;5048515;28;20034;-67
2023/05/20 03:41:47;;;;;;;1999.90;999.90;;;;;;;19.97;41.93;102544.72;5050140;28;20032;-67
2023/05/20 03:44:12;;;;;;;1999.90;999.90;;;;;;;19.99;42.33;102537.63;5050248;28;20048;-66
2023/05/20 03:46:38;;;;;;;1999.90;999.90;;;;;;;20.29;41.58;102540.44;5049352;28;20058;-67
2023/05/20 03:49:05;;;;;;;1999.90;999.90;;;;;;;19.96;42.00;102537.66;5048534;28;20029;-67
2023/05/20 03:51:30;;;;;;;1999.90;999.90;;;;;;;19.85;42.78;102534.38;5049189;28;20051;-67
2023/05/20 03:53:55;;;;;;;1999.90;999.90;;;;;;;20.27;41.64;102531.66;5065690;28;20504;-67
2023/05/20 03:56:21;;;;;;;1999.90;999.90;;;;;;;20.82;40.20;102535.59;5048895;28;20037;-67
2023/05/20 03:58:46;;;;;;;1999.90;999.90;;;;;;;20.14;41.83;102542.56;5049370;28;20032;-67
2023/05/20 04:01:13;;;;;;;1999.90;999.90;;;;;;;20.68;40.69;102532.44;5050069;28;20091;-67
2023/05/20 04:03:40;;;;;;;1999.90;999.90;;;;;;;20.62;40.93;102527.25;5048289;28;20025;-67
2023/05/20 04:06:06;;;;;;;1999.90;999.90;;;;;;;20.76;40.25;102525.16;5048399;28;20524;-67
2023/05/20 04:08:31;;;;;;;1999.90;999.90;;;;;;;20.95;40.33;102522.00;5048900;28;20121;-67
2023/05/20 04:10:57;;;;;;;1999.90;999.90;;;;;;;20.88;40.27;102523.06;5048171;28;20029;-67
2023/05/20 04:13:26;;;;;;;1999.90;999.90;;;;;;;20.22;41.53;102533.53;5048188;28;20432;-67
2023/05/20 04:15:51;;;;;;;1999.90;999.90;;;;;;;20.87;40.33;102534.59;5065295;28;20055;-67
2023/05/20 04:18:17;;;;;;;1999.90;999.90;;;;;;;20.44;40.99;102534.78;5048798;28;20061;-67
2023/05/20 04:20:43;;;;;;;1999.90;999.90;;;;;;;19.90;41.97;102536.03;5048927;28;20048;-67
2023/05/20 04:23:09;;;;;;;1999.90;999.90;;;;;;;19.92;42.04;102536.00;5063844;28;20024;-67
2023/05/20 04:25:35;;;;;;;1999.90;999.90;;;;;;;19.78;42.86;102534.50;5048789;28;20111;-67
2023/05/20 04:28:00;;;;;;;1999.90;999.90;;;;;;;19.71;42.76;102538.16;5065054;28;20397;-67
2023/05/20 04:30:26;;;;;;;1999.90;999.90;;;;;;;19.72;43.11;102539.94;5047388;28;20123;-67
2023/05/20 04:32:52;;;;;;;1999.90;999.90;;;;;;;20.23;41.91;102540.59;5048446;28;20037;-67
2023/05/20 04:35:18;;;;;;;1999.90;999.90;;;;;;;20.53;41.42;102530.16;5049324;28;20527;-67
2023/05/20 04:37:47;;;;;;;1999.90;999.90;;;;;;;20.73;40.44;102535.88;5047697;28;20072;-67
2023/05/20 04:40:13;;;;;;;1999.90;999.90;;;;;;;21.00;40.34;102538.69;5047920;28;20024;-68
2023/05/20 04:42:38;;;;;;;1999.90;999.90;;;;;;;21.52;39.79;102542.56;5049785;28;20166;-68
2023/05/20 04:45:05;;;;;;;1999.90;999.90;;;;;;;19.73;43.38;102552.28;5046916;28;20115;-67
2023/05/20 04:47:31;;;;;;;1999.90;999.90;;;;;;;21.51;39.29;102542.59;5048429;28;20033;-68
2023/05/20 04:49:56;;;;;;;1999.90;999.90;;;;;;;21.31;39.75;102545.84;5048504;28;20021;-68
2023/05/20 04:52:25;;;;;;;1999.90;999.90;;;;;;;20.92;40.73;102546.00;5046817;28;20231;-68
2023/05/20 04:54:51;;;;;;;1999.90;999.90;;;;;;;21.16;40.42;102545.34;5048048;28;20490;-68
2023/05/20 04:57:19;;;;;;;1999.90;999.90;;;;;;;21.25;40.07;102543.34;5047470;28;20040;-67
2023/05/20 04:59:48;;;;;;;1999.90;999.90;;;;;;;22.00;38.54;102542.94;5047439;28;20044;-68
2023/05/20 05:02:13;;;;;;;1999.90;999.90;;;;;;;22.19;38.55;102540.56;5047965;28;20457;-68
2023/05/20 05:04:39;;;;;;;1999.90;999.90;;;;;;;20.65;40.54;102538.69;5047982;28;20017;-68
2023/05/20 05:07:05;;;;;;;1999.90;999.90;;;;;;;20.65;40.91;102536.03;5046812;28;20028;-68
2023/05/20 05:09:30;;;;;;;1999.90;999.90;;;;;;;21.16;40.54;102534.69;5048270;28;20025;-68
2023/05/20 05:11:56;;;;;;;1999.90;999.90;;;;;;;20.97;40.46;102531.66;5049151;28;20064;-69
2023/05/20 05:14:22;;;;;;;1999.90;999.90;;;;;;;20.45;41.75;102530.34;5046816;28;20036;-68
2023/05/20 05:16:48;;;;;;;1999.90;999.90;;;;;;;21.27;40.48;102530.88;5048180;28;20029;-68
2023/05/20 05:19:13;;;;;;;1999.90;999.90;;;;;;;22.53;38.12;102529.72;5046835;28;20378;-68
2023/05/20 05:21:38;;;;;;;1999.90;999.90;;;;;;;22.15;38.44;102529.13;5049057;28;20079;-68
2023/05/20 05:24:04;;;;;;;1999.90;999.90;;;;;;;22.33;38.22;102524.13;5064269;28;20029;-68
2023/05/20 05:26:29;;;;;;;1999.90;999.90;;;;;;;22.32;38.28;102523.25;5063792;28;20024;-68
2023/05/20 05:28:55;;;;;;;1999.90;999.90;;;;;;;21.41;39.53;102528.69;5049444;28;20028;-68
2023/05/20 05:31:20;;;;;;;1999.90;999.90;;;;;;;21.89;38.77;102513.13;5064006;28;20112;-68
2023/05/20 05:33:46;;;;;;;1999.90;999.90;;;;;;;22.11;38.12;102522.16;5063652;28;20025;-68
2023/05/20 05:36:11;;;;;;;1999.90;999.90;;;;;;;22.75;37.95;102522.75;5063838;28;20033;-68
2023/05/20 05:38:37;;;;;;;1999.90;999.90;;;;;;;21.95;38.67;102524.44;5047817;28;20040;-68
2023/05/20 05:41:02;;;;;;;1999.90;999.90;;;;;;;21.48;39.51;102527.59;5047166;28;20075;-72
2023/05/20 05:43:28;;;;;;;1999.90;999.90;;;;;;;22.44;38.69;102522.00;5046992;28;20024;-68
2023/05/20 05:45:53;;;;;;;1999.90;999.90;;;;;;;22.84;37.56;102523.31;5047574;28;20025;-68
2023/05/20 05:48:18;;;;;;;1999.90;999.90;;;;;;;22.91;37.69;102515.09;5047829;28;20464;-67
2023/05/20 05:50:45;;;;;;;1999.90;999.90;;;;;;;22.31;38.36;102515.31;5047618;28;20094;-67
2023/05/20 05:53:10;;;;;;;1999.90;999.90;;;;;;;21.93;39.20;102517.44;5047028;28;20029;-67
2023/05/20 05:55:36;;;;;;;1999.90;999.90;;;;;;;21.98;39.01;102521.69;5063823;28;20029;-67
2023/05/20 05:58:01;;;;;;;1999.90;999.90;;;;;;;22.50;37.70;102521.81;5067936;28;20049;-67
2023/05/20 06:00:26;;;;;;;1999.90;999.90;;;;;;;21.81;39.00;102511.56;5050727;28;20089;-66
2023/05/20 06:02:52;;;;;;;1999.90;999.90;;;;;;;22.51;38.51;102526.19;5050799;28;20506;-67
2023/05/20 06:05:17;;;;;;;1999.90;999.90;;;;;;;21.31;40.65;102527.22;5050564;28;20032;-67
2023/05/20 06:07:43;;;;;;;1999.90;999.90;;;;;;;22.22;38.91;102527.16;5052618;28;20029;-67
2023/05/20 06:10:09;;;;;;;1999.90;999.90;;;;;;;21.92;39.74;102518.34;5050029;28;20024;-68
2023/05/20 06:12:34;;;;;;;1999.90;999.90;;;;;;;22.45;38.66;102512.22;5067802;28;20032;-68
2023/05/20 06:15:00;;;;;;;1999.90;999.90;;;;;;;21.78;39.71;102519.63;5051030;28;20496;-68
2023/05/20 06:17:25;;;;;;;1999.90;999.90;;;;;;;22.27;39.45;102522.56;5051296;28;20033;-68
2023/05/20 06:19:51;;;;;;;1999.90;999.90;;;;;;;22.73;38.17;102527.28;5050931;28;20028;-69
2023/05/20 06:22:16;;;;;;;1999.90;999.90;;;;;;;22.31;38.86;102520.63;5050704;28;20125;-68
2023/05/20 06:24:42;;;;;;;1999.90;999.90;;;;;;;22.22;38.68;102515.63;5049824;28;20520;-68
2023/05/20 06:27:07;;;;;;;1999.90;999.90;;;;;;;23.78;35.96;102511.00;5050419;28;20485;-68
2023/05/20 06:29:33;;;;;;;1999.90;999.90;;;;;;;25.59;34.41;102502.41;5050367;28;20036;-68
2023/05/20 06:31:58;;;;;;;1999.90;999.90;;;;;;;27.67;30.61;102493.53;5051102;28;20146;-68
2023/05/20 06:34:24;;;;;;;1999.90;999.90;;;;;;;26.77;30.94;102514.47;5051443;28;20251;-69
2023/05/20 06:36:49;;;;;;;1999.90;999.90;;;;;;;27.87;29.60;102512.06;5049786;28;20112;-69
2023/05/20 06:39:14;;;;;;;15.32;14.32;;;;;;;28.37;28.46;102507.44;5050400;28;20043;-67
2023/05/20 06:41:40;;;;;;;17.40;15.82;;;;;;;28.23;29.20;102508.25;5050608;28;20036;-66
2023/05/20 06:44:06;;;;;;;15.45;14.43;;;;;;;29.22;28.24;102501.41;5065975;28;20142;-68
2023/05/20 06:46:32;;;;;;;13.65;12.75;;;;;;;29.65;26.75;102500.50;5050492;28;20021;-68
2023/05/20 06:48:57;;;;;;;15.13;14.15;;;;;;;30.32;26.61;102492.44;5051842;28;20104;-69
2023/05/20 06:51:23;;;;;;;13.35;12.30;;;;;;;28.21;28.43;102502.09;5049329;28;20878;-68
2023/05/20 06:53:48;;;;;;;14.13;13.32;;;;;;;29.68;26.39;102497.63;5051662;28;20170;-66
2023/05/20 06:56:14;;;;;;;13.18;12.32;;;;;;;30.11;26.12;102492.09;5050014;28;20404;-67
2023/05/20 06:58:40;;;;;;;13.50;12.63;;;;;;;29.92;27.07;102496.03;5050929;28;20033;-67
2023/05/20 07:01:06;;;;;;;12.93;12.15;;;;;;;30.15;26.69;102488.22;5049769;28;20511;-67
2023/05/20 07:03:32;;;;;;;13.10;12.07;;;;;;;31.53;25.28;102487.59;5050050;28;20044;-67
2023/05/20 07:05:57;;;;;;;12.60;11.80;;;;;;;29.70;26.27;102490.28;5049304;28;20033;-67
2023/05/20 07:08:23;;;;;;;12.60;11.80;;;;;;;28.53;28.47;102493.91;5049025;28;20526;-67
2023/05/20 07:10:48;;;;;;;13.15;12.45;;;;;;;29.26;26.76;102481.44;5051542;28;20033;-67
2023/05/20 07:13:13;;;;;;;12.77;11.88;;;;;;;30.09;26.31;102486.81;5048711;28;20369;-67
2023/05/20 07:15:39;;;;;;;13.20;12.30;;;;;;;31.58;25.43;102485.38;5049762;28;20075;-67
2023/05/20 07:18:04;;;;;;;12.13;11.35;;;;;;;29.75;26.56;102488.16;5050173;28;20120;-67
2023/05/20 07:20:30;;;;;;;13.15;12.25;;;;;;;32.01;23.92;102483.19;5049118;28;20030;-66
2023/05/20 07:22:55;;;;;;;12.85;12.18;;;;;;;32.28;23.46;102489.22;5049774;28;20029;-67
2023/05/20 07:25:20;;;;;;;11.20;10.60;;;;;;;31.45;24.78;102492.69;5049178;28;20028;-66
2023/05/20 07:27:46;;;;;;;13.30;12.35;;;;;;;30.89;25.66;102485.84;5048987;28;20079;-66
2023/05/20 07:30:11;;;;;;;11.88;10.98;;;;;;;32.22;23.82;102472.59;5049231;28;20215;-66
2023/05/20 07:32:37;;;;;;;10.82;10.23;;;;;;;32.12;24.12;102469.69;5049864;28;20509;-67
2023/05/20 07:35:02;;;;;;;12.35;11.55;;;;;;;31.84;24.15;102477.22;5048724;28;20032;-68
2023/05/20 07:37:28;;;;;;;12.80;12.10;;;;;;;31.50;23.98;102479.69;5050239;28;20045;-68
2023/05/20 07:39:53;;;;;;;11.63;11.02;;;;;;;33.56;22.58;102466.53;5048763;28;20063;-68
2023/05/20 07:42:18;;;;;;;12.52;11.77;;;;;;;34.28;22.34;102468.56;5048875;28;20032;-68
2023/05/20 07:44:44;;;;;;;13.05;12.25;;;;;;;33.59;21.97;102469.84;5049334;28;20476;-68
2023/05/20 07:47:09;;;;;;;12.85;12.15;;;;;;;34.18;22.17;102470.34;5049421;28;20028;-68
2023/05/20 07:49:35;;;;;;;13.18;12.40;;;;;;;35.28;21.80;102467.09;5049332;28;20021;-68
2023/05/20 07:52:00;;;;;;;13.18;12.48;;;;;;;34.66;21.28;102456.28;5050398;28;20025;-68
2023/05/20 07:54:26;;;;;;;12.13;11.40;;;;;;;32.92;23.26;102457.22;5048080;28;20031;-68
2023/05/20 07:56:52;;;;;;;12.05;11.15;;;;;;;33.43;22.35;102455.84;5048936;28;20041;-68
2023/05/20 07:59:17;;;;;;;11.80;11.18;;;;;;;35.14;20.77;102453.88;5048982;28;20036;-68
2023/05/20 08:01:43;;;;;;;11.93;11.32;;;;;;;33.00;21.81;102453.91;5048104;28;20423;-68
2023/05/20 08:04:08;;;;;;;12.38;11.68;;;;;;;34.51;21.72;102457.59;5048509;28;20032;-69
2023/05/20 08:06:34;;;;;;;12.18;11.57;;;;;;;33.79;22.32;102456.50;5050334;28;20028;-68
2023/05/20 08:09:00;;;;;;;13.57;12.88;;;;;;;34.68;22.28;102467.00;5048206;28;20032;-68
2023/05/20 08:11:26;;;;;;;12.57;11.88;;;;;;;33.95;22.13;102461.47;5048361;28;20021;-68
2023/05/20 08:13:51;;;;;;;13.63;12.75;;;;;;;34.60;20.94;102464.94;5050304;28;20439;-68
2023/05/20 08:16:16;;;;;;;13.02;12.32;;;;;;;33.52;21.96;102465.91;5049127;28;20028;-68
2023/05/20 08:18:42;;;;;;;12.25;11.55;;;;;;;34.16;21.49;102465.06;5047920;28;20039;-68
2023/05/20 08:21:08;;;;;;;13.00;12.23;;;;;;;33.87;22.65;102464.84;5048311;28;20020;-68
2023/05/20 08:23:34;;;;;;;12.93;12.13;;;;;;;34.46;21.32;102462.59;5048259;28;20075;-68
2023/05/20 08:26:02;;;;;;;11.43;10.77;;;;;;;34.31;22.39;102462.91;5048436;28;20036;-68
2023/05/20 08:28:28;;;;;;;12.85;12.05;;;;;;;36.46;19.89;102456.25;5048314;28;20049;-68
2023/05/20 08:30:53;;;;;;;12.48;11.77;;;;;;;35.51;20.04;102456.00;5047706;28;20051;-68
2023/05/20 08:33:20;;;;;;;13.07;12.38;;;;;;;36.00;19.56;102456.91;5049343;28;20507;-68
2023/05/20 08:35:46;;;;;;;13.60;12.82;;;;;;;34.19;20.75;102453.09;5048329;28;20045;-68
2023/05/20 08:38:11;;;;;;;13.32;12.52;;;;;;;34.21;20.32;102456.53;5048532;28;20029;-68
2023/05/20 08:40:37;;;;;;;12.43;11.73;;;;;;;34.53;21.15;102442.06;5048293;28;20032;-67
2023/05/20 08:43:06;;;;;;;11.00;10.45;;;;;;;34.56;20.13;102444.50;5048320;28;20028;-68
2023/05/20 08:45:33;;;;;;;11.27;10.52;;;;;;;35.31;18.90;102439.66;5047372;28;20108;-67
2023/05/20 08:47:59;;;;;;;13.13;12.23;;;;;;;35.10;20.35;102433.44;5048321;28;20060;-67
2023/05/20 08:50:25;;;;;;;11.85;11.15;;;;;;;34.77;21.10;102430.00;5047137;28;20035;-68
2023/05/20 08:52:51;;;;;;;11.70;11.10;;;;;;;35.56;19.95;102421.09;5048239;28;20025;-68
2023/05/20 08:55:22;;;;;;;12.27;11.63;;;;;;;35.33;19.66;102426.78;5047948;28;20028;-68
2023/05/20 08:57:49;;;;;;;11.65;11.05;;;;;;;33.98;20.19;102429.53;5047195;28;20049;-67
2023/05/20 09:00:16;;;;;;;12.38;11.75;;;;;;;32.69;21.94;102418.47;5049403;28;20365;-68
2023/05/20 09:02:42;;;;;;;13.20;12.50;;;;;;;35.06;20.12;102408.41;5048196;28;20383;-67
2023/05/20 09:05:09;;;;;;;12.35;11.68;;;;;;;34.58;19.67;102420.81;5046884;28;20569;-67
2023/05/20 09:07:35;;;;;;;12.00;11.32;;;;;;;34.32;19.90;102410.38;5047866;28;20025;-67
2023/05/20 09:10:00;;;;;;;11.68;10.98;;;;;;;33.44;21.52;102411.50;5047981;28;20029;-68
2023/05/20 09:12:26;;;;;;;11.75;11.15;;;;;;;34.54;20.03;102413.03;5046824;28;20021;-68
2023/05/20 09:14:52;;;;;;;11.63;10.95;;;;;;;33.70;19.54;102424.72;5048060;28;20029;-68
2023/05/20 09:17:17;;;;;;;10.32;9.82;;;;;;;34.10;18.64;102418.63;5047247;28;20025;-68
2023/05/20 09:19:43;;;;;;;11.65;11.05;;;;;;;31.41;20.34;102415.56;5047264;28;20029;-65
2023/05/20 09:22:08;;;;;;;11.50;10.80;;;;;;;33.23;19.52;102412.25;5047213;28;20079;-69
2023/05/20 09:24:34;;;;;;;12.43;11.82;;;;;;;32.27;20.88;102419.88;5049815;28;20056;-68
2023/05/20 09:26:59;;;;;;;12.05;11.45;;;;;;;33.34;20.03;102397.84;5046998;28;20064;-68
2023/05/20 09:29:25;;;;;;;12.05;11.35;;;;;;;32.30;20.52;102403.41;5047180;28;20481;-67
2023/05/20 09:31:52;;;;;;;12.85;12.15;;;;;;;32.84;19.63;102395.59;5051901;28;20033;-67
2023/05/20 09:34:19;;;;;;;13.18;12.48;;;;;;;32.05;20.21;102398.16;5050785;28;20021;-67
2023/05/20 09:36:49;;;;;;;12.98;12.27;;;;;;;33.25;19.69;102383.25;5051827;28;20028;-67
2023/05/20 09:39:22;;;;;;;10.73;10.23;;;;;;;33.55;18.87;102389.78;5051306;28;20048;-69
2023/05/20 09:41:56;;;;;;;12.25;11.65;;;;;;;32.94;19.59;102385.72;5050740;28;20025;-68
2023/05/20 09:44:22;;;;;;;11.00;10.40;;;;;;;34.20;18.55;102384.28;5051161;28;20033;-67
2023/05/20 09:46:49;;;;;;;10.80;10.30;;;;;;;35.38;18.07;102373.88;5050843;28;20032;-68
2023/05/20 09:49:16;;;;;;;11.60;11.00;;;;;;;33.61;19.14;102383.84;5051055;28;20511;-67
2023/05/20 09:51:43;;;;;;;13.38;12.57;;;;;;;34.59;17.74;102378.22;5051692;28;20028;-67
2023/05/20 09:54:11;;;;;;;12.20;11.50;;;;;;;35.47;16.78;102378.47;5051363;28;20025;-68
2023/05/20 09:56:37;;;;;;;13.27;12.45;;;;;;;35.25;17.96;102369.53;5052415;28;20055;-68
2023/05/20 09:59:04;;;;;;;12.38;11.68;;;;;;;33.72;19.16;102379.38;5052685;28;20055;-67
2023/05/20 10:01:30;;;;;;;12.02;11.40;;;;;;;33.87;18.88;102367.25;5052239;28;20039;-67
2023/05/20 10:03:55;;;;;;;12.38;11.63;;;;;;;33.84;18.49;102367.50;5052792;28;20473;-66
2023/05/20 10:06:42;;;;;;;15.23;13.98;;;;;;;34.33;19.02;102365.09;5050468;28;20025;-67
2023/05/20 10:09:13;;;;;;;10.95;10.45;;;;;;;34.48;18.36;102371.03;5049884;28;20021;-67
2023/05/20 10:11:54;;;;;;;12.23;11.63;;;;;;;35.95;17.32;102353.09;5051405;28;20489;-67
2023/05/20 10:14:56;;;;;;;12.50;11.90;;;;;;;33.56;18.63;102358.13;5050670;28;20627;-67
2023/05/20 10:17:40;;;;;;;11.93;11.32;;;;;;;34.75;18.04;102350.56;5050463;28;20116;-67
2023/05/20 10:20:10;;;;;;;12.27;11.57;;;;;;;33.72;17.83;102346.84;5050744;28;20025;-67
2023/05/20 10:22:38;;;;;;;11.95;11.35;;;;;;;33.85;18.27;102363.78;5050391;28;20025;-68
2023/05/20 10:25:06;;;;;;;11.80;11.20;;;;;;;34.80;17.85;102353.69;5050183;28;20500;-67
2023/05/20 10:27:45;;;;;;;13.27;12.57;;;;;;;33.08;18.67;102351.22;5052262;28;20021;-66
2023/05/20 10:30:18;;;;;;;12.00;11.40;;;;;;;32.80;18.45;102346.25;5049595;28;20033;-66
2023/05/20 10:33:01;;;;;;;12.25;11.65;;;;;;;32.67;19.35;102339.22;5050856;28;20532;-67
2023/05/20 10:35:27;;;;;;;12.20;11.50;;;;;;;31.75;19.77;102338.25;5051268;28;20033;-66
2023/05/20 10:37:54;;;;;;;11.05;10.45;;;;;;;30.84;21.15;102344.94;5049792;28;20055;-67
2023/05/20 10:40:21;;;;;;;10.68;10.10;;;;;;;33.13;19.29;102330.06;5051523;28;20540;-68
2023/05/20 10:42:47;;;;;;;11.40;10.80;;;;;;;33.86;19.18;102327.56;5050258;28;20021;-67
2023/05/20 10:45:25;;;;;;;11.40;10.85;;;;;;;33.71;19.08;102329.69;5049773;28;20051;-68
2023/05/20 10:47:55;;;;;;;12.00;11.32;;;;;;;31.85;20.77;102321.28;5050617;28;20079;-67
2023/05/20 10:50:35;;;;;;;14.52;13.77;;;;;;;31.69;20.13;102324.34;5049297;28;20024;-68